Time;durP1;ratioP1;P1;durP2;ratioP2;P2;SDS_P1;SDS_P2;PMS_P1;PMS_P2;Temp;Humidity;BMP_temperature;BMP_pressure;BME280_temperature;BME280_humidity;BME280_pressure;Samples;Min_cycle;Max_cycle;Signal;HPM_P1;HPM_P2
2023/12/12 00:00:20;;;;;;;3.42;3.22;;;;;;;1.07;100.00;100352.28;5064659;28;20063;-75
2023/12/12 00:02:45;;;;;;;0.50;0.50;;;;;;;1.62;100.00;100439.63;5058951;28;20076;-73
2023/12/12 00:05:13;;;;;;;2.95;2.85;;;;;;;1.60;100.00;100452.50;5062318;28;20084;-74
2023/12/12 00:07:39;;;;;;;14.77;5.85;;;;;;;1.12;100.00;100340.41;5062375;28;20095;-74
2023/12/12 00:10:05;;;;;;;0.50;0.50;;;;;;;1.07;100.00;100321.28;5037083;28;20700;-74
2023/12/12 00:12:31;;;;;;;1.95;1.45;;;;;;;1.66;100.00;100431.13;5064787;28;20061;-74
2023/12/12 00:14:56;;;;;;;0.73;0.73;;;;;;;1.43;100.00;100427.72;5062391;28;20105;-74
2023/12/12 00:17:22;;;;;;;0.93;0.93;;;;;;;1.69;100.00;100436.44;5057703;28;20052;-73
2023/12/12 00:19:47;;;;;;;2.28;1.40;;;;;;;1.83;100.00;100447.28;5062549;28;21243;-73
2023/12/12 00:22:13;;;;;;;0.70;0.70;;;;;;;1.24;100.00;100344.34;5062912;28;20055;-74
2023/12/12 00:24:38;;;;;;;1.85;1.75;;;;;;;1.19;100.00;100329.47;5060201;28;20139;-74
2023/12/12 00:27:04;;;;;;;6.40;6.07;;;;;;;1.90;100.00;100447.53;5057720;28;20140;-74
2023/12/12 00:29:30;;;;;;;0.60;0.60;;;;;;;1.85;100.00;100437.84;5062121;28;20056;-73
2023/12/12 00:31:56;;;;;;;11.48;10.75;;;;;;;1.41;100.00;100383.72;5061245;28;20056;-73
2023/12/12 00:34:21;;;;;;;13.45;3.05;;;;;;;1.82;100.00;100448.09;5060213;28;20555;-74
2023/12/12 00:36:47;;;;;;;4.93;4.65;;;;;;;1.94;100.00;100478.69;5065723;28;20107;-74
2023/12/12 00:39:12;;;;;;;1.10;1.10;;;;;;;1.78;100.00;100453.97;5061745;28;20044;-75
2023/12/12 00:41:38;;;;;;;1.38;1.27;;;;;;;1.67;100.00;100471.72;5056536;28;20048;-73
2023/12/12 00:44:03;;;;;;;3.00;2.83;;;;;;;1.43;100.00;100407.94;5055125;28;20052;-74
2023/12/12 00:46:29;;;;;;;1.77;1.67;;;;;;;1.04;100.00;100338.44;5062549;28;20039;-74
2023/12/12 00:48:55;;;;;;;0.95;0.95;;;;;;;1.38;100.00;100386.19;5058412;28;20082;-74
2023/12/12 00:51:20;;;;;;;0.80;0.80;;;;;;;1.15;100.00;100345.72;5062408;28;20044;-74
2023/12/12 00:53:46;;;;;;;2.33;2.22;;;;;;;1.46;100.00;100441.63;5070537;28;20503;-74
2023/12/12 00:56:11;;;;;;;2.45;2.25;;;;;;;1.03;100.00;100365.09;5065736;28;20071;-74
2023/12/12 00:58:37;;;;;;;3.97;3.78;;;;;;;1.20;100.00;100376.06;5063167;28;20060;-74
2023/12/12 01:01:03;;;;;;;1.33;1.25;;;;;;;1.02;100.00;100360.75;5062408;28;20021;-75
2023/12/12 01:03:28;;;;;;;2.22;2.13;;;;;;;0.73;100.00;100345.88;5054501;28;20048;-75
2023/12/12 01:05:54;;;;;;;3.85;3.65;;;;;;;1.61;100.00;100458.53;5061632;28;20473;-75
2023/12/12 01:08:19;;;;;;;0.55;0.55;;;;;;;1.65;100.00;100450.06;5060644;28;20045;-75
2023/12/12 01:10:45;;;;;;;0.70;0.70;;;;;;;1.43;100.00;100425.16;5063924;28;20865;-75
2023/12/12 01:13:10;;;;;;;3.65;1.67;;;;;;;1.03;100.00;100340.94;5068287;28;20035;-76
2023/12/12 01:15:36;;;;;;;3.42;3.30;;;;;;;0.92;100.00;100344.84;5035966;28;20599;-74
2023/12/12 01:18:01;;;;;;;1.48;1.38;;;;;;;1.31;100.00;100438.50;5062125;28;20762;-75
2023/12/12 01:20:27;;;;;;;2.03;1.92;;;;;;;0.89;100.00;100335.28;5042292;28;20075;-74
2023/12/12 01:22:52;;;;;;;3.42;3.22;;;;;;;1.30;100.00;100392.78;5058473;28;20056;-76
2023/12/12 01:25:19;;;;;;;1.25;1.15;;;;;;;1.66;100.00;100451.81;5058451;28;20052;-74
2023/12/12 01:27:45;;;;;;;3.40;3.22;;;;;;;1.61;100.00;100441.31;5060221;28;20032;-75
2023/12/12 01:30:10;;;;;;;0.63;0.63;;;;;;;1.68;100.00;100451.06;5066374;28;20060;-75
2023/12/12 01:32:37;;;;;;;0.80;0.80;;;;;;;1.33;100.00;100426.47;5065360;28;20048;-74
2023/12/12 01:35:03;;;;;;;2.83;2.67;;;;;;;1.40;100.00;100425.00;5063093;28;20063;-75
2023/12/12 01:37:28;;;;;;;7.63;7.13;;;;;;;1.63;100.00;100455.19;5059500;28;20093;-74
2023/12/12 01:39:54;;;;;;;1.10;1.10;;;;;;;1.21;100.00;100364.88;5045894;28;20086;-74
2023/12/12 01:42:19;;;;;;;6.65;6.07;;;;;;;1.79;100.00;100459.22;5065103;28;20512;-73
2023/12/12 01:44:45;;;;;;;3.95;3.72;;;;;;;1.14;100.00;100382.69;5061861;28;20627;-73
2023/12/12 01:47:10;;;;;;;6.70;6.25;;;;;;;1.16;100.00;100363.84;5066157;28;20132;-75
2023/12/12 01:49:36;;;;;;;1.05;1.05;;;;;;;0.97;100.00;100375.19;5064147;28;20090;-74
2023/12/12 01:52:02;;;;;;;3.85;3.65;;;;;;;1.72;100.00;100465.00;5062663;28;20024;-73
2023/12/12 01:54:29;;;;;;;5.45;5.13;;;;;;;1.61;100.00;100432.69;5064587;28;20483;-74
2023/12/12 01:56:55;;;;;;;5.10;4.88;;;;;;;1.53;100.00;100401.38;5066556;28;20086;-73
2023/12/12 01:59:22;;;;;;;2.25;2.15;;;;;;;1.80;100.00;100444.56;5069446;28;20536;-73
2023/12/12 02:01:49;;;;;;;1.58;1.48;;;;;;;1.66;100.00;100429.44;5063808;28;20048;-74
2023/12/12 02:04:15;;;;;;;1.60;1.50;;;;;;;1.79;100.00;100438.50;5047048;28;20024;-74
2023/12/12 02:06:43;;;;;;;5.38;5.07;;;;;;;1.32;100.00;100357.53;5063996;28;20036;-74
2023/12/12 02:09:10;;;;;;;1.35;1.25;;;;;;;1.57;100.00;100387.75;5061505;28;20045;-74
2023/12/12 02:11:35;;;;;;;1.17;1.08;;;;;;;1.64;100.00;100407.81;5063939;28;20045;-74
2023/12/12 02:14:01;;;;;;;0.43;0.43;;;;;;;1.38;100.00;100359.44;5064257;28;20062;-74
2023/12/12 02:16:26;;;;;;;0.85;0.85;;;;;;;1.87;100.00;100449.13;5067154;28;20072;-74
2023/12/12 02:18:52;;;;;;;0.82;0.82;;;;;;;1.37;100.00;100363.75;5068629;28;20024;-74
2023/12/12 02:21:20;;;;;;;4.53;4.28;;;;;;;1.31;100.00;100342.88;5071298;28;20059;-74
2023/12/12 02:23:49;;;;;;;1.50;1.40;;;;;;;1.22;100.00;100347.69;5061625;28;20040;-73
2023/12/12 02:26:16;;;;;;;0.85;0.85;;;;;;;1.57;100.00;100389.41;5043344;28;20109;-74
2023/12/12 02:28:41;;;;;;;0.95;0.95;;;;;;;1.20;100.00;100337.28;5061208;28;20454;-73
2023/12/12 02:31:08;;;;;;;1.05;1.05;;;;;;;1.37;100.00;100366.31;5060565;28;20035;-74
2023/12/12 02:33:33;;;;;;;1.55;1.45;;;;;;;1.89;100.00;100443.19;5063807;28;20072;-73
2023/12/12 02:35:59;;;;;;;4.15;3.85;;;;;;;1.37;100.00;100362.88;5062050;28;20200;-74
2023/12/12 02:38:24;;;;;;;12.88;5.68;;;;;;;1.17;100.00;100321.69;5064315;28;20143;-74
2023/12/12 02:40:50;;;;;;;3.42;3.22;;;;;;;1.17;100.00;100342.34;5041715;28;20334;-74
2023/12/12 02:43:15;;;;;;;1.73;1.63;;;;;;;1.05;100.00;100319.53;5056660;28;20135;-74
2023/12/12 02:45:41;;;;;;;0.50;0.50;;;;;;;1.90;100.00;100434.59;5056406;28;20036;-73
2023/12/12 02:48:07;;;;;;;1.45;1.35;;;;;;;1.83;100.00;100434.34;5061651;28;20444;-74
2023/12/12 02:50:32;;;;;;;0.75;0.75;;;;;;;1.30;100.00;100333.34;5041260;28;20048;-74
2023/12/12 02:52:58;;;;;;;3.22;3.13;;;;;;;1.47;100.00;100315.81;5062356;28;20086;-75
2023/12/12 02:55:23;;;;;;;1.70;1.65;;;;;;;1.65;100.00;100331.09;5061322;28;20033;-73
2023/12/12 02:57:49;;;;;;;3.67;3.47;;;;;;;1.91;100.00;100360.44;5064951;28;20048;-74
2023/12/12 03:00:14;;;;;;;0.40;0.40;;;;;;;2.34;100.00;100424.00;5063238;28;20494;-76
2023/12/12 03:02:40;;;;;;;1.63;1.52;;;;;;;1.92;100.00;100349.28;5059645;28;20048;-75
2023/12/12 03:05:06;;;;;;;2.50;2.42;;;;;;;1.42;100.00;100278.59;5062434;28;20049;-74
2023/12/12 03:07:31;;;;;;;1.85;1.75;;;;;;;2.44;100.00;100435.56;5062341;28;20361;-74
2023/12/12 03:09:57;;;;;;;13.38;12.38;;;;;;;2.40;100.00;100407.81;5067880;28;20460;-74
2023/12/12 03:12:22;;;;;;;3.17;3.03;;;;;;;1.92;100.00;100325.09;5064607;28;20479;-73
2023/12/12 03:14:49;;;;;;;0.80;0.80;;;;;;;2.52;100.00;100429.78;5066254;28;20080;-74
2023/12/12 03:17:15;;;;;;;6.05;5.63;;;;;;;2.62;100.00;100437.84;5062742;28;20041;-74
2023/12/12 03:19:40;;;;;;;8.07;7.43;;;;;;;2.65;100.00;100440.56;5061390;28;20040;-74
2023/12/12 03:22:06;;;;;;;0.38;0.38;;;;;;;2.56;100.00;100446.31;5064168;28;20047;-75
2023/12/12 03:24:31;;;;;;;1.05;1.05;;;;;;;1.96;100.00;100340.78;5066705;28;20053;-75
2023/12/12 03:26:58;;;;;;;0.63;0.63;;;;;;;2.38;100.00;100392.19;5064377;28;20041;-74
2023/12/12 03:29:23;;;;;;;16.55;3.20;;;;;;;1.87;100.00;100332.72;5064347;28;20056;-74
2023/12/12 03:31:49;;;;;;;2.33;2.22;;;;;;;2.13;100.00;100434.53;5066808;28;20052;-73
2023/12/12 03:34:14;;;;;;;4.90;4.68;;;;;;;2.44;100.00;100440.75;5065020;28;20037;-74
2023/12/12 03:36:43;;;;;;;1.20;1.13;;;;;;;2.51;100.00;100450.47;5065451;28;20039;-74
2023/12/12 03:39:10;;;;;;;2.88;2.78;;;;;;;2.36;100.00;100422.34;5063232;28;20525;-74
2023/12/12 03:41:36;;;;;;;0.40;0.40;;;;;;;2.04;100.00;100372.09;5065260;28;20056;-74
2023/12/12 03:44:01;;;;;;;0.45;0.45;;;;;;;2.38;100.00;100435.34;5057428;28;20098;-74
2023/12/12 03:46:27;;;;;;;0.95;0.95;;;;;;;2.51;100.00;100455.66;5065440;28;20373;-75
2023/12/12 03:48:52;;;;;;;1.77;1.67;;;;;;;2.51;100.00;100447.88;5066585;28;20063;-75
2023/12/12 03:51:18;;;;;;;1.52;1.42;;;;;;;2.26;100.00;100415.97;5064702;28;20050;-75
2023/12/12 03:53:43;;;;;;;0.93;0.93;;;;;;;2.11;100.00;100403.41;5065146;28;20123;-75
2023/12/12 03:56:09;;;;;;;1.88;1.77;;;;;;;2.08;100.00;100372.28;5045466;28;20048;-75
2023/12/12 03:58:35;;;;;;;0.55;0.55;;;;;;;2.56;100.00;100477.41;5057756;28;20037;-75
2023/12/12 04:01:00;;;;;;;1.17;1.13;;;;;;;2.62;100.00;100467.25;5065996;28;20028;-74
2023/12/12 04:03:26;;;;;;;0.28;0.28;;;;;;;2.41;100.00;100438.03;5064589;28;20048;-75
2023/12/12 04:05:51;;;;;;;1.58;1.48;;;;;;;2.13;100.00;100403.47;5063326;28;20041;-75
2023/12/12 04:08:17;;;;;;;0.50;0.50;;;;;;;2.43;100.00;100424.31;5061707;28;20043;-74
2023/12/12 04:10:43;;;;;;;1.60;1.50;;;;;;;2.23;100.00;100371.00;5062225;28;20041;-74
2023/12/12 04:13:09;;;;;;;11.15;10.23;;;;;;;2.92;100.00;100462.16;5069172;28;20029;-74
2023/12/12 04:15:34;;;;;;;4.10;3.90;;;;;;;2.86;100.00;100441.25;5065350;28;20109;-75
2023/12/12 04:18:00;;;;;;;0.68;0.68;;;;;;;2.98;100.00;100451.13;5063517;28;20144;-75
2023/12/12 04:20:25;;;;;;;1.23;1.20;;;;;;;2.19;100.00;100323.41;5058718;28;20686;-74
2023/12/12 04:22:51;;;;;;;12.95;4.93;;;;;;;2.08;100.00;100320.50;5061732;28;20507;-74
2023/12/12 04:25:16;;;;;;;3.75;3.60;;;;;;;2.44;100.00;100365.66;5062572;28;20044;-73
2023/12/12 04:27:42;;;;;;;0.52;0.52;;;;;;;2.25;100.00;100348.66;5065024;28;20039;-73
2023/12/12 04:30:08;;;;;;;3.03;2.88;;;;;;;2.47;100.00;100376.97;5061608;28;20581;-74
2023/12/12 04:32:34;;;;;;;0.60;0.60;;;;;;;2.98;100.00;100466.66;5057888;28;20637;-74
2023/12/12 04:35:00;;;;;;;0.40;0.40;;;;;;;2.98;100.00;100470.97;5056101;28;20123;-73
2023/12/12 04:37:26;;;;;;;5.60;5.25;;;;;;;2.43;100.00;100358.69;5062613;28;20047;-73
2023/12/12 04:39:51;;;;;;;1.30;0.60;;;;;;;3.08;100.00;100484.25;5060044;28;20562;-74
2023/12/12 04:42:17;;;;;;;0.30;0.30;;;;;;;3.09;100.00;100473.06;5051957;28;20050;-72
2023/12/12 04:44:43;;;;;;;1.77;1.67;;;;;;;2.48;100.00;100368.38;5056670;28;20045;-74
2023/12/12 04:47:09;;;;;;;1.95;1.85;;;;;;;3.14;100.00;100473.22;5058566;28;20098;-75
2023/12/12 04:49:35;;;;;;;1.38;1.30;;;;;;;2.83;100.00;100441.13;5058768;28;20040;-75
2023/12/12 04:52:01;;;;;;;0.95;0.90;;;;;;;2.25;100.00;100382.31;5059122;28;20056;-75
2023/12/12 04:54:27;;;;;;;1.48;1.38;;;;;;;2.91;100.00;100463.00;5055777;28;20871;-74
2023/12/12 04:56:53;;;;;;;2.28;2.17;;;;;;;2.58;100.00;100377.31;5062695;28;20053;-74
2023/12/12 04:59:19;;;;;;;2.00;1.90;;;;;;;2.63;100.00;100351.56;5051335;28;20052;-74
2023/12/12 05:01:45;;;;;;;0.65;0.65;;;;;;;2.92;100.00;100407.72;5050165;28;20483;-74
2023/12/12 05:04:10;;;;;;;1.52;1.42;;;;;;;2.81;100.00;100369.38;5055399;28;20036;-73
2023/12/12 05:06:36;;;;;;;0.88;0.88;;;;;;;2.56;100.00;100358.25;5064221;28;20053;-73
2023/12/12 05:09:02;;;;;;;0.98;0.93;;;;;;;3.31;100.00;100468.53;5057717;28;20040;-74
2023/12/12 05:11:28;;;;;;;0.60;0.60;;;;;;;3.43;100.00;100496.56;5057199;28;20059;-74
2023/12/12 05:13:54;;;;;;;1.25;1.05;;;;;;;3.44;100.00;100499.22;5061701;28;20048;-74
2023/12/12 05:16:19;;;;;;;1.80;1.70;;;;;;;3.27;100.00;100445.94;5056014;28;20065;-74
2023/12/12 05:18:45;;;;;;;2.13;2.03;;;;;;;3.37;100.00;100481.66;5042266;28;20429;-74
2023/12/12 05:21:11;;;;;;;0.60;0.60;;;;;;;2.58;100.00;100328.09;5045549;28;20508;-75
2023/12/12 05:23:36;;;;;;;1.60;1.50;;;;;;;3.28;100.00;100445.13;5028650;28;20227;-75
2023/12/12 05:26:02;;;;;;;1.48;1.38;;;;;;;2.83;100.00;100359.94;5058709;28;20048;-75
2023/12/12 05:28:27;;;;;;;2.03;1.85;;;;;;;2.82;100.00;100397.94;5061655;28;20072;-74
2023/12/12 05:30:54;;;;;;;6.90;6.50;;;;;;;3.62;100.00;100497.97;5039646;28;20044;-75
2023/12/12 05:33:20;;;;;;;0.70;0.70;;;;;;;3.42;100.00;100474.94;5062028;28;20078;-76
2023/12/12 05:35:48;;;;;;;10.70;5.70;;;;;;;2.85;100.00;100379.88;5042318;28;20054;-74
2023/12/12 05:38:13;;;;;;;1.20;1.20;;;;;;;3.45;100.00;100479.31;5058624;28;20052;-75
2023/12/12 05:40:39;;;;;;;0.70;0.70;;;;;;;2.99;100.00;100384.59;5064150;28;20040;-76
2023/12/12 05:43:04;;;;;;;0.50;0.50;;;;;;;3.52;100.00;100478.66;5060185;28;20132;-75
2023/12/12 05:45:30;;;;;;;2.05;1.45;;;;;;;3.56;100.00;100470.16;5053212;28;20048;-75
2023/12/12 05:47:56;;;;;;;2.15;2.05;;;;;;;3.69;100.00;100485.22;5068135;28;20131;-75
2023/12/12 05:50:21;;;;;;;1.35;1.27;;;;;;;2.98;100.00;100364.72;5059960;28;20048;-75
2023/12/12 05:52:47;;;;;;;0.68;0.68;;;;;;;3.50;100.00;100454.41;5062995;28;20108;-76
2023/12/12 05:55:12;;;;;;;6.50;6.10;;;;;;;3.75;100.00;100485.41;5062508;28;20032;-75
2023/12/12 05:57:38;;;;;;;0.80;0.80;;;;;;;3.34;100.00;100415.03;5059973;28;20144;-75
2023/12/12 06:00:05;;;;;;;6.68;6.18;;;;;;;3.17;100.00;100382.56;5062793;28;20094;-74
2023/12/12 06:02:31;;;;;;;5.35;5.05;;;;;;;3.43;100.00;100422.22;5066467;28;20562;-74
2023/12/12 06:04:57;;;;;;;3.80;1.10;;;;;;;3.92;100.00;100492.78;5069075;28;20056;-74
2023/12/12 06:07:22;;;;;;;1.40;1.30;;;;;;;3.48;100.00;100423.22;5056897;28;20048;-74
2023/12/12 06:09:48;;;;;;;1.10;1.10;;;;;;;3.17;100.00;100362.69;5066653;28;20029;-76
2023/12/12 06:12:15;;;;;;;45.85;28.92;;;;;;;3.88;100.00;100483.16;5065724;28;20074;-74
2023/12/12 06:14:40;;;;;;;0.55;0.55;;;;;;;3.23;100.00;100398.31;5049148;28;20598;-75
2023/12/12 06:17:06;;;;;;;3.35;3.13;;;;;;;3.88;100.00;100514.28;5066993;28;20049;-73
2023/12/12 06:19:32;;;;;;;1.88;1.77;;;;;;;3.26;100.00;100382.81;5070413;28;20138;-74
2023/12/12 06:21:57;;;;;;;0.80;0.70;;;;;;;3.92;100.00;100495.38;5066679;28;20036;-75
2023/12/12 06:24:23;;;;;;;3.80;3.60;;;;;;;3.83;100.00;100527.13;5072895;28;20056;-74
2023/12/12 06:26:48;;;;;;;3.80;3.60;;;;;;;3.68;100.00;100470.50;5045592;28;20528;-74
2023/12/12 06:29:14;;;;;;;5.28;4.97;;;;;;;3.21;100.00;100405.16;5067133;28;20040;-75
2023/12/12 06:31:40;;;;;;;19.08;17.67;;;;;;;3.92;100.00;100510.97;5049189;28;20105;-73
2023/12/12 06:34:07;;;;;;;0.45;0.45;;;;;;;3.63;100.00;100421.88;5069347;28;20063;-74
2023/12/12 06:36:32;;;;;;;1.42;1.33;;;;;;;4.13;100.00;100514.16;5065078;28;20055;-75
2023/12/12 06:38:58;;;;;;;4.47;2.85;;;;;;;3.59;100.00;100410.56;5066922;28;20041;-75
2023/12/12 06:41:23;;;;;;;4.97;4.68;;;;;;;3.99;100.00;100477.41;5067169;28;20055;-74
2023/12/12 06:43:49;;;;;;;6.10;5.68;;;;;;;4.15;100.00;100498.63;5067554;28;20041;-75
2023/12/12 06:46:18;;;;;;;0.82;0.82;;;;;;;4.16;100.00;100505.56;5064507;28;20099;-74
2023/12/12 06:48:44;;;;;;;7.78;5.22;;;;;;;4.23;100.00;100495.38;5067889;28;20029;-74
2023/12/12 06:51:10;;;;;;;2.75;2.65;;;;;;;4.29;100.00;100494.69;5066381;28;20040;-74
2023/12/12 06:53:36;;;;;;;0.95;0.90;;;;;;;4.39;100.00;100488.88;5059166;28;20044;-73
2023/12/12 06:56:02;;;;;;;2.85;2.65;;;;;;;4.29;100.00;100478.22;5060585;28;20045;-75
2023/12/12 06:58:28;;;;;;;0.77;0.77;;;;;;;4.53;100.00;100516.94;5068178;28;20171;-75
2023/12/12 07:00:54;;;;;;;1.48;1.38;;;;;;;4.47;100.00;100512.44;5044642;28;20366;-74
2023/12/12 07:03:21;;;;;;;0.40;0.40;;;;;;;4.19;100.00;100519.53;5067263;28;20080;-75
2023/12/12 07:05:51;;;;;;;3.65;3.08;;;;;;;4.26;100.00;100476.44;5045369;28;20048;-74
2023/12/12 07:08:20;;;;;;;1.58;1.48;;;;;;;3.87;100.00;100414.78;5047901;28;20432;-74
2023/12/12 07:10:46;;;;;;;1.58;1.48;;;;;;;3.97;100.00;100411.59;5063638;28;20125;-74
2023/12/12 07:13:12;;;;;;;2.05;1.95;;;;;;;4.59;100.00;100507.59;5069436;28;20043;-75
2023/12/12 07:15:38;;;;;;;11.93;6.60;;;;;;;4.00;100.00;100416.00;5044718;28;20422;-74
2023/12/12 07:18:10;;;;;;;2.90;2.70;;;;;;;4.00;100.00;100411.69;5046132;28;20098;-74
2023/12/12 07:20:38;;;;;;;1.25;1.23;;;;;;;4.38;100.00;100465.47;5035285;28;20052;-74
2023/12/12 07:23:04;;;;;;;0.50;0.50;;;;;;;4.59;100.00;100502.41;5045604;28;20045;-74
2023/12/12 07:25:30;;;;;;;0.77;0.77;;;;;;;4.01;100.00;100409.97;5049740;28;20142;-75
2023/12/12 07:27:56;;;;;;;0.40;0.40;;;;;;;4.43;100.00;100479.47;5048731;28;20028;-74
2023/12/12 07:30:23;;;;;;;0.50;0.50;;;;;;;4.52;100.00;100484.91;5050155;28;20055;-75
2023/12/12 07:32:49;;;;;;;9.70;9.05;;;;;;;4.28;100.00;100440.94;5050131;28;20181;-75
2023/12/12 07:35:16;;;;;;;0.55;0.55;;;;;;;4.07;100.00;100404.06;5040686;28;20159;-75
2023/12/12 07:37:42;;;;;;;2.05;1.95;;;;;;;4.32;100.00;100481.75;5044982;28;20041;-75
2023/12/12 07:40:08;;;;;;;2.00;1.90;;;;;;;4.49;100.00;100490.00;5040268;28;20425;-74
2023/12/12 07:42:34;;;;;;;1.65;1.55;;;;;;;4.10;100.00;100425.78;5043582;28;20120;-74
2023/12/12 07:44:59;;;;;;;0.40;0.40;;;;;;;4.52;100.00;100471.00;5031855;28;20144;-75
2023/12/12 07:47:25;;;;;;;5.00;4.78;;;;;;;4.76;100.00;100515.81;5030092;28;20049;-75
2023/12/12 07:49:52;;;;;;;17.73;14.90;;;;;;;4.60;100.00;100495.47;5020478;28;20053;-74
2023/12/12 07:52:17;;;;;;;1.13;1.02;;;;;;;4.65;100.00;100473.94;5025869;28;20083;-74
2023/12/12 07:54:43;;;;;;;2.95;1.95;;;;;;;4.28;100.00;100404.59;5025050;28;20033;-74
2023/12/12 07:57:09;;;;;;;56.40;14.82;;;;;;;4.56;100.00;100470.25;5022664;28;20037;-73
2023/12/12 07:59:35;;;;;;;1.60;1.55;;;;;;;4.40;100.00;100412.72;5025180;28;20076;-75
2023/12/12 08:02:01;;;;;;;9.65;3.63;;;;;;;4.86;100.00;100493.50;5025389;28;20045;-75
2023/12/12 08:04:27;;;;;;;3.60;3.28;;;;;;;4.88;100.00;100493.56;5025345;28;20049;-76
2023/12/12 08:06:53;;;;;;;3.15;1.08;;;;;;;4.50;100.00;100412.94;5023310;28;20040;-74
2023/12/12 08:09:19;;;;;;;0.50;0.50;;;;;;;4.96;100.00;100507.63;5023144;28;20045;-75
2023/12/12 08:11:44;;;;;;;2.17;2.05;;;;;;;4.82;100.00;100474.38;5023830;28;20382;-75
2023/12/12 08:14:10;;;;;;;3.70;2.20;;;;;;;4.98;100.00;100479.94;5028286;28;20716;-75
2023/12/12 08:16:35;;;;;;;11.20;10.45;;;;;;;4.90;100.00;100463.28;5058790;28;20182;-75
2023/12/12 08:19:01;;;;;;;7.05;4.95;;;;;;;4.63;100.00;100399.38;5064359;28;20512;-75
2023/12/12 08:21:26;;;;;;;0.40;0.40;;;;;;;5.04;100.00;100465.34;5055180;28;20405;-74
2023/12/12 08:23:54;;;;;;;0.88;0.88;;;;;;;4.70;100.00;100371.81;5066800;28;20147;-75
2023/12/12 08:26:24;;;;;;;30.00;27.63;;;;;;;5.21;100.00;100468.34;5065714;28;20041;-75
2023/12/12 08:28:49;;;;;;;1.38;1.30;;;;;;;5.08;100.00;100456.78;5062371;28;20048;-75
2023/12/12 08:31:15;;;;;;;0.38;0.38;;;;;;;4.84;100.00;100375.63;5064478;28;20043;-75
2023/12/12 08:33:42;;;;;;;0.30;0.30;;;;;;;5.36;100.00;100461.72;5075040;28;20036;-74
2023/12/12 08:36:08;;;;;;;3.15;2.97;;;;;;;5.34;100.00;100435.69;5042346;28;20088;-75
2023/12/12 08:38:34;;;;;;;2.05;1.35;;;;;;;5.32;100.00;100428.69;5066281;28;20390;-74
2023/12/12 08:40:59;;;;;;;2.28;1.55;;;;;;;4.94;100.00;100361.09;5060338;28;20068;-74
2023/12/12 08:43:25;;;;;;;26.83;17.02;;;;;;;5.20;100.00;100411.97;5059919;28;20495;-75
2023/12/12 08:45:52;;;;;;;1.45;1.35;;;;;;;5.13;100.00;100360.66;5064948;28;20154;-74
2023/12/12 08:48:18;;;;;;;0.38;0.38;;;;;;;5.59;100.00;100436.19;5045437;28;20064;-74
2023/12/12 08:50:44;;;;;;;15.95;9.77;;;;;;;5.40;100.00;100404.56;5071060;28;20048;-74
2023/12/12 08:53:10;;;;;;;0.60;0.60;;;;;;;5.20;100.00;100431.91;5063280;28;20041;-75
2023/12/12 08:55:36;;;;;;;0.30;0.30;;;;;;;5.43;100.00;100427.16;5066305;28;20044;-74
2023/12/12 08:58:01;;;;;;;3.55;3.30;;;;;;;5.27;100.00;100402.56;5059121;28;20396;-75
2023/12/12 09:00:27;;;;;;;0.77;0.77;;;;;;;5.45;100.00;100408.13;5035366;28;20736;-75
2023/12/12 09:02:52;;;;;;;0.63;0.63;;;;;;;5.54;100.00;100417.88;5067229;28;20043;-74
2023/12/12 09:05:18;;;;;;;8.35;7.60;;;;;;;5.52;100.00;100413.47;5043676;28;20063;-74
2023/12/12 09:07:44;;;;;;;16.95;15.85;;;;;;;5.36;100.00;100383.66;5063233;28;20051;-74
2023/12/12 09:10:09;;;;;;;1.50;1.40;;;;;;;5.69;100.00;100414.72;5074518;28;20036;-74
2023/12/12 09:12:35;;;;;;;4.07;3.80;;;;;;;5.59;100.00;100398.00;5064509;28;20053;-75
2023/12/12 09:15:02;;;;;;;1.65;0.77;;;;;;;5.84;100.00;100414.13;5064673;28;20040;-73
2023/12/12 09:17:27;;;;;;;1.45;1.35;;;;;;;5.70;100.00;100414.72;5069052;28;20041;-74
2023/12/12 09:19:54;;;;;;;3.17;3.00;;;;;;;5.61;100.00;100409.34;5063680;28;20037;-74
2023/12/12 09:22:19;;;;;;;11.40;5.82;;;;;;;5.52;100.00;100364.03;5060309;28;20048;-75
2023/12/12 09:24:45;;;;;;;0.60;0.60;;;;;;;5.85;100.00;100411.56;5065662;28;20029;-74
2023/12/12 09:27:10;;;;;;;3.60;2.50;;;;;;;5.29;100.00;100289.00;5066660;28;20072;-75
2023/12/12 09:29:36;;;;;;;0.90;0.90;;;;;;;5.68;100.00;100382.56;5064782;28;20051;-76
2023/12/12 09:32:02;;;;;;;2.47;2.28;;;;;;;5.36;100.00;100303.00;5058952;28;20101;-75
2023/12/12 09:34:28;;;;;;;5.00;4.70;;;;;;;5.84;100.00;100404.56;5066355;28;20041;-75
2023/12/12 09:36:54;;;;;;;7.10;6.45;;;;;;;5.80;100.00;100387.13;5065563;28;20024;-75
2023/12/12 09:39:19;;;;;;;3.90;2.72;;;;;;;6.06;100.00;100397.19;5046978;28;20045;-74
2023/12/12 09:41:46;;;;;;;7.60;5.53;;;;;;;6.26;100.00;100390.59;5056124;28;20072;-75
2023/12/12 09:44:16;;;;;;;2.95;2.85;;;;;;;5.63;100.00;100300.91;5064645;28;20040;-74
2023/12/12 09:46:45;;;;;;;6.80;6.15;;;;;;;6.16;100.00;100354.84;5064758;28;20044;-74
2023/12/12 09:49:12;;;;;;;0.70;0.70;;;;;;;6.24;100.00;100381.00;5066384;28;20071;-74
2023/12/12 09:51:44;;;;;;;0.73;0.73;;;;;;;6.21;100.00;100389.66;5068523;28;20071;-73
2023/12/12 09:54:13;;;;;;;1.50;1.45;;;;;;;5.78;100.00;100283.81;5050842;28;20105;-74
2023/12/12 09:56:40;;;;;;;1.25;1.15;;;;;;;6.23;100.00;100348.00;5071786;28;20049;-75
2023/12/12 09:59:06;;;;;;;0.40;0.40;;;;;;;6.19;100.00;100365.31;5066010;28;20052;-75
2023/12/12 10:01:35;;;;;;;5.00;3.92;;;;;;;6.08;100.00;100319.97;5062902;28;20526;-75
2023/12/12 10:04:10;;;;;;;0.82;0.82;;;;;;;5.90;100.00;100269.31;5070199;28;20054;-74
2023/12/12 10:06:42;;;;;;;1.08;1.08;;;;;;;5.50;100.00;100268.59;5044600;28;20063;-74
2023/12/12 10:09:11;;;;;;;1.83;1.73;;;;;;;6.32;100.00;100375.09;5064786;28;20102;-73
2023/12/12 10:11:36;;;;;;;12.98;11.95;;;;;;;5.97;100.00;100270.31;5064638;28;20094;-75
2023/12/12 10:14:02;;;;;;;3.03;2.83;;;;;;;6.27;100.00;100355.88;5066595;28;20055;-75
2023/12/12 10:16:30;;;;;;;3.20;3.00;;;;;;;6.04;100.00;100261.75;5072930;28;20540;-73
2023/12/12 10:18:59;;;;;;;2.10;1.98;;;;;;;6.04;100.00;100290.41;5067838;28;20479;-75
2023/12/12 10:21:26;;;;;;;2.15;2.05;;;;;;;6.57;100.00;100338.97;5064270;28;20084;-73
2023/12/12 10:23:52;;;;;;;0.93;0.93;;;;;;;6.17;100.00;100290.59;5067104;28;20107;-73
2023/12/12 10:26:29;;;;;;;8.82;8.27;;;;;;;5.98;100.00;100248.63;5066913;28;20120;-74
2023/12/12 10:28:56;;;;;;;2.53;2.42;;;;;;;6.62;100.00;100346.88;5063723;28;20052;-74
2023/12/12 10:31:22;;;;;;;2.00;1.83;;;;;;;7.12;100.00;100375.41;5066330;28;20036;-75
2023/12/12 10:33:51;;;;;;;12.70;9.82;;;;;;;6.86;100.00;100278.53;5067666;28;20027;-74
2023/12/12 10:36:17;;;;;;;2.92;2.80;;;;;;;6.57;100.00;100252.06;5066853;28;20056;-75
2023/12/12 10:38:44;;;;;;;2.47;2.38;;;;;;;6.84;100.00;100195.06;5066955;28;20040;-74
2023/12/12 10:41:20;;;;;;;2.72;1.45;;;;;;;7.25;100.00;100232.91;5064254;28;20044;-74
2023/12/12 10:43:47;;;;;;;0.47;0.47;;;;;;;8.23;100.00;100353.97;5066307;28;20076;-74
2023/12/12 10:46:18;;;;;;;1.35;1.25;;;;;;;7.96;100.00;100250.97;5063471;28;20028;-74
2023/12/12 10:48:52;;;;;;;2.75;2.60;;;;;;;8.34;100.00;100322.69;5059912;28;20083;-74
2023/12/12 10:51:18;;;;;;;4.13;3.92;;;;;;;7.76;100.00;100245.56;5067583;28;20048;-74
2023/12/12 10:53:48;;;;;;;4.97;4.68;;;;;;;7.79;100.00;100240.38;5064923;28;20454;-75
2023/12/12 10:56:15;;;;;;;1.55;1.13;;;;;;;8.51;100.00;100315.00;5068480;28;20048;-75
2023/12/12 10:58:42;;;;;;;20.27;9.52;;;;;;;8.62;100.00;100322.06;5069518;28;20048;-75
2023/12/12 11:01:09;;;;;;;1.85;1.75;;;;;;;8.12;100.00;100316.41;5068026;28;20099;-75
2023/12/12 11:03:36;;;;;;;21.63;20.00;;;;;;;8.16;100.00;100240.66;5061130;28;20044;-75
2023/12/12 11:06:05;;;;;;;0.52;0.52;;;;;;;7.86;100.00;100235.22;5069581;28;20044;-74
2023/12/12 11:08:31;;;;;;;1.85;1.75;;;;;;;7.88;100.00;100228.25;5050255;28;20088;-75
2023/12/12 11:11:05;;;;;;;0.80;0.80;;;;;;;8.20;100.00;100286.00;5068867;28;20091;-73
2023/12/12 11:13:34;;;;;;;0.75;0.75;;;;;;;8.22;100.00;100252.91;5061582;28;20094;-74
2023/12/12 11:16:03;;;;;;;1.17;0.98;;;;;;;8.28;100.00;100280.81;5068558;28;20080;-75
2023/12/12 11:18:29;;;;;;;1.55;1.45;;;;;;;8.36;100.00;100293.09;5042863;28;20054;-74